createdAt,value
2019-05-26T00:00:45.585Z,76.12
2019-05-26T00:01:45.560Z,76.84
2019-05-26T00:02:45.555Z,76.53
2019-05-26T00:03:45.524Z,76.63
2019-05-26T00:04:45.532Z,76.67
2019-05-26T00:05:45.524Z,77.08
2019-05-26T00:06:45.490Z,76.97
2019-05-26T00:07:45.499Z,76.67
2019-05-26T00:08:45.491Z,77.79
2019-05-26T00:09:45.463Z,77.89
2019-05-26T00:10:45.469Z,77.79
2019-05-26T00:11:45.457Z,77.69
2019-05-26T00:12:45.437Z,77.69
2019-05-26T00:13:45.443Z,78.44
2019-05-26T00:14:45.409Z,78.13
2019-05-26T00:15:45.404Z,78.03
2019-05-26T00:16:45.383Z,78.23
2019-05-26T00:17:45.381Z,78.75
2019-05-26T00:18:45.365Z,78.95
2019-05-26T00:19:45.369Z,79.57
2019-05-26T00:20:45.386Z,79.46
2019-05-26T00:21:45.339Z,79.39
2019-05-26T00:22:45.326Z,79.80
2019-05-26T00:23:45.313Z,79.80
2019-05-26T00:24:45.300Z,79.80
2019-05-26T00:25:45.302Z,80.01
2019-05-26T00:26:45.299Z,79.60
2019-05-26T00:27:45.264Z,80.11
2019-05-26T00:28:45.262Z,80.21
2019-05-26T00:29:45.315Z,80.76
2019-05-26T00:30:45.231Z,80.56
2019-05-26T00:31:45.246Z,80.83
2019-05-26T00:32:45.215Z,80.97
2019-05-26T00:33:45.189Z,80.97
2019-05-26T00:34:45.188Z,80.87
2019-05-26T00:35:45.178Z,80.87
2019-05-26T00:36:45.187Z,80.66
2019-05-26T00:37:49.605Z,80.87
2019-05-26T00:38:46.143Z,81.44
2019-05-26T00:39:45.126Z,80.62
2019-05-26T00:40:45.133Z,80.93
2019-05-26T00:41:45.143Z,80.93
2019-05-26T00:42:45.092Z,80.93
2019-05-26T00:43:45.086Z,80.52
2019-05-26T00:44:45.093Z,80.52
2019-05-26T00:45:45.066Z,80.52
2019-05-26T00:46:45.080Z,80.42
2019-05-26T00:47:45.164Z,81.13
2019-05-26T00:48:45.916Z,80.97
2019-05-26T00:49:45.035Z,81.13
2019-05-26T00:50:45.009Z,81.48
2019-05-26T00:51:45.010Z,81.48
2019-05-26T00:52:45.028Z,81.79
2019-05-26T00:53:44.974Z,81.79
2019-05-26T00:54:44.987Z,81.72
2019-05-26T00:55:44.964Z,82.03
2019-05-26T00:56:44.960Z,82.09
2019-05-26T00:57:44.937Z,82.13
2019-05-26T00:58:44.942Z,82.84
2019-05-26T00:59:44.918Z,82.34
2019-05-26T01:00:44.908Z,82.84
2019-05-26T01:01:44.895Z,83.15
2019-05-26T01:02:44.870Z,82.84
2019-05-26T01:03:44.881Z,83.36
2019-05-26T01:04:44.879Z,82.84
2019-05-26T01:05:44.836Z,83.36
2019-05-26T01:06:44.866Z,83.36
2019-05-26T01:07:44.831Z,83.29
2019-05-26T01:08:44.831Z,83.81
2019-05-26T01:09:44.815Z,84.31
2019-05-26T01:10:44.862Z,84.01
2019-05-26T01:11:44.824Z,84.01
2019-05-26T01:12:44.780Z,84.01
2019-05-26T01:13:44.831Z,84.11
2019-05-26T01:14:44.755Z,83.81
2019-05-26T01:15:44.745Z,84.52
2019-05-26T01:16:44.732Z,84.42
2019-05-26T01:17:44.708Z,84.11
2019-05-26T01:18:44.723Z,84.63
2019-05-26T01:19:44.703Z,84.11
2019-05-26T01:20:44.692Z,84.52
2019-05-26T01:21:44.686Z,84.31
2019-05-26T01:22:44.651Z,84.31
2019-05-26T01:23:44.666Z,84.52
2019-05-26T01:24:44.639Z,84.56
2019-05-26T01:25:44.630Z,84.52
2019-05-26T01:26:44.635Z,84.52
2019-05-26T01:27:44.639Z,84.31
2019-05-26T01:28:44.613Z,84.22
2019-05-26T01:29:44.620Z,84.31
2019-05-26T01:30:44.628Z,84.22
2019-05-26T01:31:44.575Z,84.52
2019-05-26T01:32:44.603Z,84.31
2019-05-26T01:33:44.590Z,84.22
2019-05-26T01:34:44.595Z,85.03
2019-05-26T01:35:44.515Z,84.01
2019-05-26T01:36:44.563Z,84.22
2019-05-26T01:37:44.499Z,84.22
2019-05-26T01:38:44.503Z,84.22
2019-05-26T01:39:44.486Z,84.22
2019-05-26T01:40:44.492Z,84.31
2019-05-26T01:41:44.457Z,84.31
2019-05-26T01:42:44.433Z,84.97
2019-05-26T01:43:44.440Z,84.25
2019-05-26T01:44:44.417Z,85.69
2019-05-26T01:45:44.467Z,85.89
2019-05-26T01:46:44.398Z,86.10
2019-05-26T01:47:44.387Z,85.89
2019-05-26T01:48:44.372Z,85.99
2019-05-26T01:49:44.374Z,86.10
2019-05-26T01:50:44.361Z,85.69
2019-05-26T01:51:44.365Z,85.99
2019-05-26T01:52:44.332Z,85.79
2019-05-26T01:53:44.330Z,86.40
2019-05-26T01:54:44.307Z,86.40
2019-05-26T01:55:44.321Z,86.40
2019-05-26T01:56:44.327Z,86.24
2019-05-26T01:57:44.289Z,86.34
2019-05-26T01:58:44.270Z,86.85
2019-05-26T01:59:44.274Z,86.61
2019-05-26T02:00:44.242Z,86.75
2019-05-26T02:01:44.251Z,87.06
2019-05-26T02:02:44.243Z,87.26
2019-05-26T02:03:44.210Z,87.47
2019-05-26T02:04:44.200Z,87.67
2019-05-26T02:05:44.193Z,87.88
2019-05-26T02:06:44.190Z,87.77
2019-05-26T02:07:44.160Z,87.57
2019-05-26T02:08:44.151Z,87.77
2019-05-26T02:09:44.145Z,87.06
2019-05-26T02:10:44.149Z,87.67
2019-05-26T02:11:44.147Z,87.88
2019-05-26T02:12:44.122Z,87.67
2019-05-26T02:13:44.101Z,87.67
2019-05-26T02:14:44.088Z,87.77
2019-05-26T02:15:44.069Z,87.77
2019-05-26T02:16:44.090Z,87.47
2019-05-26T02:17:44.088Z,87.88
2019-05-26T02:18:44.055Z,87.26
2019-05-26T02:19:44.036Z,87.67
2019-05-26T02:20:44.043Z,87.16
2019-05-26T02:21:44.010Z,87.16
2019-05-26T02:22:44.024Z,87.57
2019-05-26T02:23:43.998Z,87.06
2019-05-26T02:24:44.000Z,86.85
2019-05-26T02:25:43.979Z,86.85
2019-05-26T02:26:43.947Z,87.57
2019-05-26T02:27:43.976Z,87.47
2019-05-26T02:28:43.924Z,87.67
2019-05-26T02:29:43.922Z,86.85
2019-05-26T02:30:43.979Z,86.65
2019-05-26T02:31:43.937Z,86.75
2019-05-26T02:32:43.892Z,87.37
2019-05-26T02:33:43.869Z,87.37
2019-05-26T02:34:43.876Z,87.06
2019-05-26T02:35:43.877Z,87.16
2019-05-26T02:36:43.848Z,86.96
2019-05-26T02:37:43.859Z,87.67
2019-05-26T02:39:01.281Z,87.47
2019-05-26T02:39:44.832Z,87.57
2019-05-26T02:40:43.801Z,87.16
2019-05-26T02:41:43.798Z,86.85
2019-05-26T02:42:43.811Z,87.06
2019-05-26T02:43:43.781Z,86.96
2019-05-26T02:44:43.771Z,87.06
2019-05-26T02:45:43.756Z,86.55
2019-05-26T02:46:43.749Z,87.16
2019-05-26T02:47:43.746Z,86.65
2019-05-26T02:48:43.727Z,87.77
2019-05-26T02:49:43.719Z,86.85
2019-05-26T02:50:43.714Z,86.75
2019-05-26T02:51:43.677Z,86.85
2019-05-26T02:52:43.669Z,86.55
2019-05-26T02:53:43.647Z,86.65
2019-05-26T02:54:43.660Z,86.65
2019-05-26T02:55:43.637Z,86.85
2019-05-26T02:56:43.624Z,86.85
2019-05-26T02:57:43.645Z,86.75
2019-05-26T02:58:43.605Z,86.55
2019-05-26T02:59:43.592Z,86.44
2019-05-26T03:00:43.613Z,86.75
2019-05-26T03:02:01.455Z,86.55
2019-05-26T03:02:44.578Z,86.71
2019-05-26T03:03:43.552Z,86.20
2019-05-26T03:04:43.555Z,86.24
2019-05-26T03:05:43.533Z,86.24
2019-05-26T03:06:43.531Z,86.24
2019-05-26T03:07:43.540Z,86.24
2019-05-26T03:08:43.519Z,86.14
2019-05-26T03:09:43.486Z,86.14
2019-05-26T03:10:43.476Z,85.93
2019-05-26T03:11:43.466Z,86.24
2019-05-26T03:12:43.469Z,86.14
2019-05-26T03:13:43.466Z,86.24
2019-05-26T03:14:43.432Z,86.24
2019-05-26T03:15:43.428Z,86.18
2019-05-26T03:16:43.423Z,86.79
2019-05-26T03:17:43.444Z,87.51
2019-05-26T03:18:43.401Z,87.71
2019-05-26T03:19:43.369Z,87.61
2019-05-26T03:20:43.372Z,87.82
2019-05-26T03:21:43.362Z,87.82
2019-05-26T03:22:43.339Z,87.82
2019-05-26T03:23:43.345Z,87.45
2019-05-26T03:24:43.315Z,87.71
2019-05-26T03:25:43.306Z,87.71
2019-05-26T03:26:43.303Z,87.45
2019-05-26T03:27:43.304Z,87.96
2019-05-26T03:28:43.319Z,87.82
2019-05-26T03:29:43.335Z,87.20
2019-05-26T03:30:43.247Z,87.20
2019-05-26T03:31:43.255Z,87.82
2019-05-26T03:32:43.309Z,86.99
2019-05-26T03:33:43.232Z,86.69
2019-05-26T03:34:43.215Z,86.85
2019-05-26T03:35:43.195Z,86.69
2019-05-26T03:36:43.180Z,86.79
2019-05-26T03:37:43.177Z,86.14
2019-05-26T03:38:43.174Z,86.55
2019-05-26T03:39:46.025Z,86.44
2019-05-26T03:40:43.155Z,85.93
2019-05-26T03:41:43.130Z,85.72
2019-05-26T03:42:43.113Z,85.83
2019-05-26T03:43:43.104Z,85.72
2019-05-26T03:44:43.112Z,85.72
2019-05-26T03:45:43.088Z,85.42
2019-05-26T03:46:43.089Z,85.69
2019-05-26T03:47:43.087Z,85.28
2019-05-26T03:48:43.062Z,84.77
2019-05-26T03:49:43.059Z,85.07
2019-05-26T03:50:43.035Z,84.36
2019-05-26T03:51:43.016Z,84.36
2019-05-26T03:52:43.022Z,84.46
2019-05-26T03:53:42.999Z,84.46
2019-05-26T03:54:43.009Z,84.31
2019-05-26T03:55:42.991Z,83.81
2019-05-26T03:56:42.978Z,83.81
2019-05-26T03:57:42.957Z,83.50
2019-05-26T03:58:42.958Z,83.60
2019-05-26T03:59:42.974Z,83.39
2019-05-26T04:00:42.951Z,83.19
2019-05-26T04:01:42.919Z,82.98
2019-05-26T04:02:42.907Z,83.19
2019-05-26T04:03:42.908Z,83.09
2019-05-26T04:04:42.881Z,82.64
2019-05-26T04:05:42.892Z,82.54
2019-05-26T04:06:42.858Z,82.23
2019-05-26T04:07:42.982Z,82.13
2019-05-26T04:08:42.829Z,81.72
2019-05-26T04:10:02.606Z,81.38
2019-05-26T04:10:43.827Z,81.58
2019-05-26T04:11:42.808Z,81.38
2019-05-26T04:12:42.793Z,81.17
2019-05-26T04:13:42.796Z,80.87
2019-05-26T04:14:42.791Z,80.83
2019-05-26T04:15:42.774Z,81.07
2019-05-26T04:16:42.734Z,80.32
2019-05-26T04:17:42.750Z,80.52
2019-05-26T04:18:42.758Z,80.21
2019-05-26T04:19:42.733Z,79.80
2019-05-26T04:20:45.715Z,79.87
2019-05-26T04:21:42.703Z,79.57
2019-05-26T04:22:42.678Z,79.16
2019-05-26T04:23:42.693Z,78.44
2019-05-26T04:24:42.673Z,79.12
2019-05-26T04:25:42.666Z,79.43
2019-05-26T04:26:42.662Z,78.81
2019-05-26T04:27:42.615Z,78.71
2019-05-26T04:28:42.617Z,78.50
2019-05-26T04:29:42.597Z,78.77
2019-05-26T04:30:42.598Z,78.06
2019-05-26T04:31:42.624Z,77.96
2019-05-26T04:32:42.587Z,78.47
2019-05-26T04:33:42.561Z,78.06
2019-05-26T04:34:42.556Z,77.92
2019-05-26T04:35:42.530Z,77.25
2019-05-26T04:36:42.546Z,77.34
2019-05-26T04:37:42.515Z,76.90
2019-05-26T04:38:42.525Z,76.80
2019-05-26T04:39:42.496Z,77.11
2019-05-26T04:40:42.486Z,76.70
2019-05-26T04:41:42.477Z,77.31
2019-05-26T04:42:42.480Z,77.21
2019-05-26T04:43:42.477Z,76.70
2019-05-26T04:44:42.452Z,76.70
2019-05-26T04:45:42.427Z,76.56
2019-05-26T04:46:42.431Z,76.66
2019-05-26T04:47:42.413Z,76.56
2019-05-26T04:48:42.385Z,76.66
2019-05-26T04:49:42.390Z,76.15
2019-05-26T04:50:42.379Z,76.22
2019-05-26T04:51:42.364Z,76.12
2019-05-26T04:52:42.394Z,74.99
2019-05-26T04:53:43.338Z,74.79
2019-05-26T04:54:42.323Z,74.96
2019-05-26T04:55:42.321Z,75.06
2019-05-26T04:56:42.333Z,74.76
2019-05-26T04:57:42.349Z,74.65
2019-05-26T04:58:42.272Z,74.01
2019-05-26T04:59:42.266Z,73.91
2019-05-26T05:00:42.255Z,73.67
2019-05-26T05:01:42.262Z,72.92
2019-05-26T05:02:42.256Z,72.48
2019-05-26T05:03:42.238Z,71.16
2019-05-26T05:04:42.227Z,70.11
2019-05-26T05:05:42.225Z,70.82
2019-05-26T05:06:42.193Z,70.28
2019-05-26T05:07:42.201Z,69.87
2019-05-26T05:08:42.180Z,70.21
2019-05-26T05:09:42.169Z,70.21
2019-05-26T05:10:43.007Z,70.11
2019-05-26T05:11:42.157Z,70.31
2019-05-26T05:12:42.135Z,70.31
2019-05-26T05:13:42.136Z,69.91
2019-05-26T05:14:42.099Z,69.87
2019-05-26T05:15:42.098Z,69.06
2019-05-26T05:16:42.085Z,69.13
2019-05-26T05:17:42.076Z,68.62
2019-05-26T05:18:42.073Z,68.22
2019-05-26T05:19:42.045Z,67.88
2019-05-26T05:20:42.034Z,67.14
2019-05-26T05:21:42.017Z,66.80
2019-05-26T05:22:42.050Z,65.76
2019-05-26T05:23:42.020Z,65.56
2019-05-26T05:24:41.992Z,65.15
2019-05-26T05:25:41.982Z,63.78
2019-05-26T05:26:41.969Z,63.21
2019-05-26T05:27:41.972Z,61.87
2019-05-26T05:28:41.967Z,61.51
2019-05-26T05:29:41.946Z,60.16
2019-05-26T05:30:41.924Z,59.22
2019-05-26T05:31:41.901Z,58.29
2019-05-26T05:32:41.896Z,59.00
2019-05-26T05:33:41.899Z,57.56
2019-05-26T05:34:41.915Z,57.25
2019-05-26T05:35:41.877Z,57.76
2019-05-26T05:36:41.855Z,56.65
2019-05-26T05:37:41.855Z,56.42
2019-05-26T05:38:41.866Z,56.65
2019-05-26T05:39:41.827Z,57.10
2019-05-26T05:40:58.000Z,56.80
2019-05-26T05:41:42.794Z,56.20
2019-05-26T05:42:41.829Z,55.99
2019-05-26T05:43:41.802Z,56.49
2019-05-26T05:44:41.768Z,56.40
2019-05-26T05:45:41.779Z,56.60
2019-05-26T05:46:41.750Z,55.79
2019-05-26T05:47:41.750Z,55.89
2019-05-26T05:48:41.758Z,56.49
2019-05-26T05:49:41.740Z,55.62
2019-05-26T05:50:41.696Z,55.71
2019-05-26T05:51:41.706Z,55.99
2019-05-26T05:52:41.680Z,56.60
2019-05-26T05:53:41.695Z,55.87
2019-05-26T05:54:41.661Z,55.56
2019-05-26T05:55:41.645Z,54.46
2019-05-26T05:56:41.635Z,55.16
2019-05-26T05:57:41.626Z,54.33
2019-05-26T05:58:41.625Z,54.63
2019-05-26T05:59:41.623Z,54.33
2019-05-26T06:00:41.645Z,54.40
2019-05-26T06:01:41.611Z,53.40
2019-05-26T06:02:41.577Z,52.77
2019-05-26T06:03:41.585Z,52.97
2019-05-26T06:04:41.567Z,52.14
2019-05-26T06:05:41.534Z,52.87
2019-05-26T06:06:41.528Z,53.27
2019-05-26T06:07:41.523Z,52.55
2019-05-26T06:08:41.536Z,51.94
2019-05-26T06:09:41.496Z,52.84
2019-05-26T06:10:41.470Z,52.34
2019-05-26T06:11:41.461Z,52.42
2019-05-26T06:12:41.468Z,50.89
2019-05-26T06:13:41.449Z,49.93
2019-05-26T06:14:41.482Z,49.74
2019-05-26T06:15:41.426Z,49.21
2019-05-26T06:16:41.408Z,49.31
2019-05-26T06:17:41.395Z,50.04
2019-05-26T06:18:41.419Z,48.69
2019-05-26T06:19:41.398Z,49.07
2019-05-26T06:20:41.374Z,48.42
2019-05-26T06:21:41.363Z,47.31
2019-05-26T06:22:41.341Z,47.39
2019-05-26T06:23:41.335Z,47.27
2019-05-26T06:24:41.339Z,46.55
2019-05-26T06:25:41.324Z,45.45
2019-05-26T06:26:41.307Z,45.23
2019-05-26T06:27:41.300Z,44.03
2019-05-26T06:28:41.287Z,45.40
2019-05-26T06:29:57.587Z,44.41
2019-05-26T06:30:42.253Z,44.19
2019-05-26T06:31:41.251Z,43.19
2019-05-26T06:32:41.246Z,44.21
2019-05-26T06:33:41.224Z,43.43
2019-05-26T06:34:41.217Z,44.41
2019-05-26T06:35:41.259Z,43.29
2019-05-26T06:36:41.192Z,43.19
2019-05-26T06:37:41.188Z,42.47
2019-05-26T06:38:41.175Z,41.88
2019-05-26T06:39:41.181Z,42.25
2019-05-26T06:40:41.152Z,42.23
2019-05-26T06:41:41.149Z,42.33
2019-05-26T06:42:41.129Z,41.44
2019-05-26T06:43:41.131Z,42.15
2019-05-26T06:44:52.936Z,41.55
2019-05-26T06:45:42.098Z,42.37
2019-05-26T06:46:41.084Z,42.25
2019-05-26T06:47:41.078Z,42.33
2019-05-26T06:48:41.067Z,40.72
2019-05-26T06:49:41.061Z,41.00
2019-05-26T06:50:41.072Z,40.68
2019-05-26T06:51:41.046Z,40.58
2019-05-26T06:52:41.029Z,39.95
2019-05-26T06:53:41.020Z,38.81
2019-05-26T06:54:41.007Z,37.94
2019-05-26T06:55:41.008Z,38.87
2019-05-26T06:56:40.985Z,38.87
2019-05-26T06:57:40.958Z,39.70
2019-05-26T06:58:40.967Z,40.52
2019-05-26T06:59:40.978Z,41.77
2019-05-26T07:00:40.948Z,42.21
2019-05-26T07:01:40.929Z,43.15
2019-05-26T07:02:40.933Z,44.37
2019-05-26T07:03:40.902Z,44.89
2019-05-26T07:04:40.903Z,45.69
2019-05-26T07:05:40.883Z,45.59
2019-05-26T07:06:40.878Z,45.45
2019-05-26T07:07:40.853Z,43.41
2019-05-26T07:08:40.860Z,42.35
2019-05-26T07:09:40.869Z,41.22
2019-05-26T07:10:40.841Z,40.48
2019-05-26T07:11:51.718Z,40.36
2019-05-26T07:12:41.813Z,39.84
2019-05-26T07:13:40.793Z,39.95
2019-05-26T07:14:40.800Z,39.23
2019-05-26T07:15:40.762Z,40.03
2019-05-26T07:16:40.750Z,38.64
2019-05-26T07:17:40.751Z,38.64
2019-05-26T07:18:40.749Z,38.71
2019-05-26T07:19:40.740Z,37.60
2019-05-26T07:20:40.712Z,38.50
2019-05-26T07:21:40.706Z,38.38
2019-05-26T07:22:40.702Z,37.59
2019-05-26T07:23:40.696Z,37.17
2019-05-26T07:24:40.708Z,35.86
2019-05-26T07:25:40.670Z,37.13
2019-05-26T07:26:40.652Z,36.64
2019-05-26T07:27:40.640Z,36.54
2019-05-26T07:28:40.629Z,35.95
2019-05-26T07:29:40.633Z,37.73
2019-05-26T07:30:40.614Z,35.97
2019-05-26T07:31:40.616Z,35.86
2019-05-26T07:32:40.619Z,37.77
2019-05-26T07:33:40.586Z,36.86
2019-05-26T07:34:40.591Z,36.88
2019-05-26T07:35:40.569Z,37.26
2019-05-26T07:36:40.549Z,36.38
2019-05-26T07:37:40.549Z,36.79
2019-05-26T07:38:40.522Z,36.68
2019-05-26T07:39:40.529Z,37.37
2019-05-26T07:40:40.504Z,36.40
2019-05-26T07:41:40.511Z,37.82
2019-05-26T07:42:40.499Z,38.34
2019-05-26T07:43:40.486Z,39.17
2019-05-26T07:44:40.495Z,39.75
2019-05-26T07:45:40.474Z,39.37
2019-05-26T07:46:40.442Z,39.05
2019-05-26T07:47:40.446Z,38.47
2019-05-26T07:48:40.426Z,39.27
2019-05-26T07:49:40.434Z,39.37
2019-05-26T07:50:40.415Z,38.85
2019-05-26T07:51:40.398Z,39.03
2019-05-26T07:52:40.381Z,39.01
2019-05-26T07:53:40.368Z,37.60
2019-05-26T07:54:40.372Z,37.09
2019-05-26T07:55:40.375Z,37.07
2019-05-26T07:56:40.379Z,37.07
2019-05-26T07:57:40.334Z,36.79
2019-05-26T07:58:40.323Z,38.32
2019-05-26T07:59:40.313Z,37.96
2019-05-26T08:00:40.316Z,38.56
2019-05-26T08:01:40.310Z,38.85
2019-05-26T08:02:40.281Z,38.99
2019-05-26T08:03:40.270Z,40.10
2019-05-26T08:04:40.267Z,40.38
2019-05-26T08:05:40.268Z,39.90
2019-05-26T08:06:40.241Z,40.02
2019-05-26T08:07:40.225Z,40.72
2019-05-26T08:08:40.237Z,40.84
2019-05-26T08:09:40.212Z,41.38
2019-05-26T08:10:40.220Z,41.75
2019-05-26T08:11:40.195Z,41.96
2019-05-26T08:12:40.176Z,42.65
2019-05-26T08:13:40.175Z,42.45
2019-05-26T08:14:40.164Z,42.45
2019-05-26T08:15:40.179Z,43.82
2019-05-26T08:16:40.151Z,42.93
2019-05-26T08:17:40.131Z,42.21
2019-05-26T08:18:40.149Z,40.90
2019-05-26T08:19:40.139Z,39.76
2019-05-26T08:20:40.153Z,39.71
2019-05-26T08:21:40.133Z,38.70
2019-05-26T08:22:40.091Z,37.79
2019-05-26T08:23:40.073Z,37.47
2019-05-26T08:24:40.052Z,37.47
2019-05-26T08:25:40.023Z,36.90
2019-05-26T08:26:40.033Z,38.22
2019-05-26T08:27:40.015Z,37.94
2019-05-26T08:28:40.006Z,37.62
2019-05-26T08:29:40.001Z,38.14
2019-05-26T08:30:39.984Z,37.56
2019-05-26T08:31:40.005Z,38.64
2019-05-26T08:32:39.954Z,39.11
2019-05-26T08:33:39.943Z,38.20
2019-05-26T08:34:39.943Z,37.70
2019-05-26T08:35:39.926Z,39.00
2019-05-26T08:36:39.935Z,37.60
2019-05-26T08:37:39.919Z,37.81
2019-05-26T08:38:39.907Z,37.98
2019-05-26T08:39:39.886Z,37.09
2019-05-26T08:40:39.918Z,37.90
2019-05-26T08:41:39.871Z,39.29
2019-05-26T08:42:44.432Z,37.03
2019-05-26T08:43:40.829Z,37.43
2019-05-26T08:44:39.815Z,37.62
2019-05-26T08:45:39.809Z,37.72
2019-05-26T08:46:39.816Z,37.62
2019-05-26T08:47:39.821Z,36.69
2019-05-26T08:48:39.794Z,35.58
2019-05-26T08:49:39.788Z,37.13
2019-05-26T08:50:39.768Z,36.05
2019-05-26T08:51:39.756Z,34.97
2019-05-26T08:52:39.802Z,35.47
2019-05-26T08:53:39.729Z,35.97
2019-05-26T08:54:39.728Z,35.93
2019-05-26T08:55:39.746Z,34.22
2019-05-26T08:56:39.697Z,34.01
2019-05-26T08:57:39.694Z,34.99
2019-05-26T08:58:39.704Z,33.67
2019-05-26T08:59:39.686Z,31.98
2019-05-26T09:00:39.664Z,32.45
2019-05-26T09:01:39.655Z,31.47
2019-05-26T09:02:39.649Z,32.85
2019-05-26T09:03:39.619Z,31.63
2019-05-26T09:04:39.639Z,32.11
2019-05-26T09:05:39.621Z,31.69
2019-05-26T09:06:39.586Z,31.48
2019-05-26T09:07:39.580Z,30.68
2019-05-26T09:08:39.588Z,30.17
2019-05-26T09:09:39.574Z,30.74
2019-05-26T09:10:39.555Z,29.45
2019-05-26T09:11:39.562Z,29.16
2019-05-26T09:12:39.528Z,29.25
2019-05-26T09:13:39.546Z,29.34
2019-05-26T09:14:39.544Z,29.24
2019-05-26T09:15:39.513Z,29.43
2019-05-26T09:16:39.504Z,27.46
2019-05-26T09:17:39.485Z,27.26
2019-05-26T09:18:39.490Z,28.15
2019-05-26T09:19:39.462Z,26.50
2019-05-26T09:20:39.455Z,28.49
2019-05-26T09:21:39.457Z,28.41
2019-05-26T09:22:39.461Z,30.38
2019-05-26T09:23:39.422Z,29.31
2019-05-26T09:24:39.438Z,29.13
2019-05-26T09:25:39.406Z,30.31
2019-05-26T09:26:39.393Z,29.93
2019-05-26T09:27:39.382Z,30.19
2019-05-26T09:28:39.390Z,29.71
2019-05-26T09:29:39.384Z,30.30
2019-05-26T09:30:39.354Z,29.02
2019-05-26T09:31:39.338Z,30.00
2019-05-26T09:32:39.337Z,32.01
2019-05-26T09:33:39.319Z,30.55
2019-05-26T09:34:39.334Z,31.73
2019-05-26T09:35:39.303Z,31.95
2019-05-26T09:36:39.324Z,32.06
2019-05-26T09:37:39.284Z,31.78
2019-05-26T09:38:39.274Z,31.40
2019-05-26T09:39:39.278Z,31.91
2019-05-26T09:40:39.262Z,32.52
2019-05-26T09:41:39.235Z,33.03
2019-05-26T09:42:39.228Z,32.27
2019-05-26T09:43:39.224Z,32.75
2019-05-26T09:44:39.200Z,34.05
2019-05-26T09:45:39.234Z,33.16
2019-05-26T09:46:39.202Z,34.25
2019-05-26T09:47:39.204Z,34.88
2019-05-26T09:48:39.187Z,34.58
2019-05-26T09:49:39.164Z,33.97
2019-05-26T09:50:39.157Z,33.73
2019-05-26T09:51:39.173Z,34.23
2019-05-26T09:52:39.124Z,34.55
2019-05-26T09:53:39.117Z,35.44
2019-05-26T09:54:39.111Z,32.95
2019-05-26T09:55:39.104Z,32.80
2019-05-26T09:56:39.107Z,32.77
2019-05-26T09:57:39.074Z,31.06
2019-05-26T09:58:39.057Z,31.42
2019-05-26T09:59:39.053Z,29.72
2019-05-26T10:00:39.041Z,30.10
2019-05-26T10:01:39.057Z,30.56
2019-05-26T10:02:39.026Z,30.28
2019-05-26T10:03:38.999Z,29.79
2019-05-26T10:04:39.001Z,29.80
2019-05-26T10:05:38.985Z,29.31
2019-05-26T10:06:39.007Z,29.89
2019-05-26T10:07:38.982Z,30.49
2019-05-26T10:08:38.966Z,28.72
2019-05-26T10:09:38.964Z,28.72
2019-05-26T10:10:38.930Z,29.62
2019-05-26T10:11:38.954Z,30.11
2019-05-26T10:12:38.916Z,29.58
2019-05-26T10:13:38.901Z,29.39
2019-05-26T10:14:38.898Z,30.30
2019-05-26T10:15:38.894Z,28.91
2019-05-26T10:16:38.882Z,29.75
2019-05-26T10:17:38.868Z,31.38
2019-05-26T10:18:38.916Z,31.78
2019-05-26T10:19:38.856Z,31.85
2019-05-26T10:20:38.847Z,31.26
2019-05-26T10:21:38.849Z,31.54
2019-05-26T10:22:38.813Z,31.75
2019-05-26T10:23:38.804Z,31.04
2019-05-26T10:24:38.787Z,32.01
2019-05-26T10:25:38.785Z,31.51
2019-05-26T10:26:38.814Z,30.91
2019-05-26T10:27:38.768Z,30.52
2019-05-26T10:28:38.757Z,30.32
2019-05-26T10:29:38.738Z,30.72
2019-05-26T10:30:38.721Z,31.21
2019-05-26T10:31:38.741Z,31.14
2019-05-26T10:32:38.726Z,30.37
2019-05-26T10:33:38.702Z,30.30
2019-05-26T10:34:38.693Z,31.82
2019-05-26T10:35:38.734Z,34.03
2019-05-26T10:36:38.740Z,32.76
2019-05-26T10:37:38.661Z,33.94
2019-05-26T10:38:38.664Z,33.75
2019-05-26T10:39:38.648Z,33.94
2019-05-26T10:40:38.646Z,32.96
2019-05-26T10:41:38.667Z,32.65
2019-05-26T10:42:38.606Z,34.43
2019-05-26T10:43:46.989Z,34.01
2019-05-26T10:44:39.582Z,33.59
2019-05-26T10:45:38.568Z,32.78
2019-05-26T10:46:38.595Z,32.78
2019-05-26T10:47:38.574Z,32.68
2019-05-26T10:48:38.547Z,32.31
2019-05-26T10:49:38.597Z,32.60
2019-05-26T10:50:38.531Z,33.69
2019-05-26T10:51:38.530Z,31.30
2019-05-26T10:52:38.522Z,32.68
2019-05-26T10:53:38.499Z,32.97
2019-05-26T10:54:38.482Z,31.03
2019-05-26T10:55:38.470Z,31.72
2019-05-26T10:56:38.471Z,31.54
2019-05-26T10:57:38.452Z,31.90
2019-05-26T10:58:38.462Z,30.72
2019-05-26T10:59:38.435Z,31.70
2019-05-26T11:00:38.449Z,30.41
2019-05-26T11:01:38.437Z,31.39
2019-05-26T11:02:38.411Z,31.51
2019-05-26T11:03:38.384Z,31.51
2019-05-26T11:04:38.388Z,31.41
2019-05-26T11:05:38.374Z,30.91
2019-05-26T11:06:38.394Z,31.41
2019-05-26T11:07:38.353Z,30.44
2019-05-26T11:08:38.343Z,30.91
2019-05-26T11:09:38.326Z,30.94
2019-05-26T11:10:38.342Z,31.73
2019-05-26T11:11:38.338Z,30.99
2019-05-26T11:12:38.311Z,32.07
2019-05-26T11:13:40.701Z,32.70
2019-05-26T11:14:38.283Z,33.01
2019-05-26T11:15:38.262Z,32.93
2019-05-26T11:16:38.270Z,32.95
2019-05-26T11:17:38.253Z,32.73
2019-05-26T11:18:38.246Z,33.51
2019-05-26T11:19:38.232Z,33.97
2019-05-26T11:20:38.227Z,32.34
2019-05-26T11:21:38.227Z,31.67
2019-05-26T11:22:38.212Z,31.45
2019-05-26T11:23:38.203Z,32.04
2019-05-26T11:24:38.203Z,32.06
2019-05-26T11:25:38.166Z,31.98
2019-05-26T11:26:38.187Z,32.10
2019-05-26T11:27:38.160Z,32.12
2019-05-26T11:28:38.157Z,32.55
2019-05-26T11:29:38.141Z,33.56
2019-05-26T11:30:38.129Z,33.56
2019-05-26T11:31:38.111Z,34.25
2019-05-26T11:32:38.106Z,33.56
2019-05-26T11:33:38.078Z,33.75
2019-05-26T11:34:38.075Z,34.92
2019-05-26T11:35:38.065Z,33.33
2019-05-26T11:36:38.063Z,33.09
2019-05-26T11:37:38.072Z,32.60
2019-05-26T11:38:38.021Z,32.68
2019-05-26T11:39:38.011Z,32.06
2019-05-26T11:40:38.012Z,31.73
2019-05-26T11:41:37.989Z,30.94
2019-05-26T11:42:38.013Z,31.92
2019-05-26T11:43:37.975Z,31.52
2019-05-26T11:44:37.969Z,30.43
2019-05-26T11:45:37.954Z,31.51
2019-05-26T11:46:37.945Z,31.10
2019-05-26T11:47:37.951Z,31.39
2019-05-26T11:48:39.268Z,29.82
2019-05-26T11:49:37.912Z,29.39
2019-05-26T11:50:37.909Z,29.45
2019-05-26T11:51:37.912Z,28.43
2019-05-26T11:52:37.894Z,27.24
2019-05-26T11:53:37.897Z,27.25
2019-05-26T11:54:37.860Z,28.92
2019-05-26T11:55:37.853Z,28.72
2019-05-26T11:56:37.853Z,27.45
2019-05-26T11:57:37.927Z,27.26
2019-05-26T11:58:37.827Z,27.50
2019-05-26T11:59:37.819Z,28.02
2019-05-26T12:00:37.795Z,29.24
2019-05-26T12:01:37.796Z,29.86
2019-05-26T12:02:37.800Z,31.37
2019-05-26T12:03:37.770Z,31.59
2019-05-26T12:04:37.772Z,31.79
2019-05-26T12:05:37.751Z,32.31
2019-05-26T12:06:37.731Z,32.42
2019-05-26T12:07:37.726Z,33.13
2019-05-26T12:08:37.742Z,34.10
2019-05-26T12:09:37.710Z,33.80
2019-05-26T12:10:37.701Z,34.28
2019-05-26T12:11:37.693Z,33.00
2019-05-26T12:12:37.703Z,33.00
2019-05-26T12:13:37.673Z,32.12
2019-05-26T12:14:37.673Z,31.40
2019-05-26T12:15:37.657Z,31.09
2019-05-26T12:16:37.647Z,31.57
2019-05-26T12:17:37.634Z,31.56
2019-05-26T12:18:37.633Z,31.47
2019-05-26T12:19:37.600Z,31.57
2019-05-26T12:20:37.585Z,31.20
2019-05-26T12:21:37.583Z,32.49
2019-05-26T12:22:37.588Z,32.78
2019-05-26T12:23:37.569Z,31.99
2019-05-26T12:24:37.579Z,32.70
2019-05-26T12:25:37.529Z,32.68
2019-05-26T12:26:37.556Z,32.80
2019-05-26T12:27:37.523Z,32.50
2019-05-26T12:28:37.515Z,32.21
2019-05-26T12:29:37.519Z,32.12
2019-05-26T12:30:37.499Z,33.51
2019-05-26T12:31:37.468Z,33.00
2019-05-26T12:32:37.469Z,33.01
2019-05-26T12:33:37.448Z,33.13
2019-05-26T12:34:37.470Z,32.53
2019-05-26T12:35:37.441Z,33.03
2019-05-26T12:36:39.422Z,33.64
2019-05-26T12:37:37.436Z,32.75
2019-05-26T12:38:37.415Z,34.36
2019-05-26T12:39:37.391Z,34.27
2019-05-26T12:40:37.403Z,35.75
2019-05-26T12:41:37.591Z,35.06
2019-05-26T12:42:37.355Z,35.65
2019-05-26T12:43:37.353Z,35.46
2019-05-26T12:44:49.169Z,34.86
2019-05-26T12:45:38.337Z,34.17
2019-05-26T12:46:37.319Z,36.15
2019-05-26T12:47:37.321Z,34.17
2019-05-26T12:48:37.301Z,34.06
2019-05-26T12:49:37.293Z,34.27
2019-05-26T12:50:37.289Z,35.06
2019-05-26T12:51:37.268Z,35.46
2019-05-26T12:52:37.276Z,33.95